createdAt,value
2018-08-10T00:00:33.001Z,998.83
2018-08-10T00:01:39.013Z,998.82
2018-08-10T00:02:45.518Z,998.88
2018-08-10T00:03:51.999Z,998.90
2018-08-10T00:04:58.481Z,998.89
2018-08-10T00:06:04.972Z,998.95
2018-08-10T00:07:11.460Z,999.02
2018-08-10T00:08:17.957Z,999.03
2018-08-10T00:09:24.463Z,999.11
2018-08-10T00:10:30.924Z,999.06
2018-08-10T00:11:37.421Z,999.09
2018-08-10T00:12:43.899Z,999.13
2018-08-10T00:13:50.388Z,999.15
2018-08-10T00:14:56.880Z,999.17
2018-08-10T00:16:03.365Z,999.16
2018-08-10T00:17:09.839Z,999.10
2018-08-10T00:18:16.329Z,999.14
2018-08-10T00:19:22.826Z,999.12
2018-08-10T00:20:29.297Z,999.15
2018-08-10T00:21:35.782Z,999.24
2018-08-10T00:22:42.277Z,999.21
2018-08-10T00:23:48.753Z,999.26
2018-08-10T00:24:55.748Z,999.25
2018-08-10T00:26:01.712Z,999.35
2018-08-10T00:27:08.297Z,999.44
2018-08-10T00:28:14.668Z,999.39
2018-08-10T00:29:21.157Z,999.39
2018-08-10T00:30:27.635Z,999.39
2018-08-10T00:31:34.609Z,999.44
2018-08-10T00:32:40.591Z,999.45
2018-08-10T00:33:47.064Z,999.48
2018-08-10T00:34:53.549Z,999.49
2018-08-10T00:36:00.026Z,999.53
2018-08-10T00:37:06.499Z,999.57
2018-08-10T00:38:12.981Z,999.58
2018-08-10T00:39:19.448Z,999.61
2018-08-10T00:40:25.918Z,999.61
2018-08-10T00:41:32.391Z,999.63
2018-08-10T00:42:38.868Z,999.69
2018-08-10T00:43:45.329Z,999.69
2018-08-10T00:44:51.795Z,999.73
2018-08-10T00:45:58.262Z,999.74
2018-08-10T00:47:04.736Z,999.72
2018-08-10T00:48:11.206Z,999.77
2018-08-10T00:49:17.668Z,999.79
2018-08-10T00:50:24.124Z,999.77
2018-08-10T00:51:30.585Z,999.78
2018-08-10T00:52:37.044Z,999.82
2018-08-10T00:53:43.514Z,999.78
2018-08-10T00:54:49.990Z,999.75
2018-08-10T00:55:56.414Z,999.84
2018-08-10T00:57:02.892Z,999.84
2018-08-10T00:58:09.331Z,999.88
2018-08-10T00:59:15.793Z,999.77
2018-08-10T01:00:22.246Z,999.85
2018-08-10T01:01:28.707Z,999.84
2018-08-10T01:02:35.150Z,999.84
2018-08-10T01:03:42.608Z,999.93
2018-08-10T01:04:48.064Z,999.96
2018-08-10T01:05:54.501Z,1000.00
2018-08-10T01:07:00.951Z,1000.04
2018-08-10T01:08:07.412Z,1000.10
2018-08-10T01:09:13.850Z,1000.16
2018-08-10T01:10:20.309Z,1000.13
2018-08-10T01:11:26.749Z,1000.17
2018-08-10T01:12:33.289Z,1000.23
2018-08-10T01:13:40.627Z,1000.26
2018-08-10T01:14:46.081Z,1000.19
2018-08-10T01:15:52.528Z,1000.22
2018-08-10T01:16:58.950Z,1000.19
2018-08-10T01:18:05.394Z,1000.23
2018-08-10T01:19:11.854Z,1000.26
2018-08-10T01:20:18.280Z,1000.29
2018-08-10T01:21:24.708Z,1000.33
2018-08-10T01:22:31.145Z,1000.41
2018-08-10T01:23:37.585Z,1000.43
2018-08-10T01:24:44.036Z,1000.40
2018-08-10T01:25:50.452Z,1000.40
2018-08-10T01:26:56.892Z,1000.45
2018-08-10T01:28:03.315Z,1000.39
2018-08-10T01:29:09.756Z,1000.43
2018-08-10T01:30:16.196Z,1000.44
2018-08-10T01:31:22.626Z,1000.38
2018-08-10T01:32:29.054Z,1000.44
2018-08-10T01:33:35.492Z,1000.53
2018-08-10T01:34:41.946Z,1000.54
2018-08-10T01:35:48.361Z,1000.58
2018-08-10T01:36:54.799Z,1000.64
2018-08-10T01:38:01.224Z,1000.65
2018-08-10T01:39:07.678Z,1000.71
2018-08-10T01:40:14.099Z,1000.67
2018-08-10T01:41:20.526Z,1000.73
2018-08-10T01:42:26.949Z,1000.74
2018-08-10T01:43:34.385Z,1000.72
2018-08-10T01:44:39.830Z,1000.81
2018-08-10T01:45:46.253Z,1000.84
2018-08-10T01:46:52.684Z,1000.85
2018-08-10T01:47:59.122Z,1000.84
2018-08-10T01:49:05.555Z,1000.89
2018-08-10T01:50:11.989Z,1000.83
2018-08-10T01:51:18.414Z,1000.87
2018-08-10T01:52:24.845Z,1000.82
2018-08-10T01:53:31.283Z,1000.83
2018-08-10T01:54:37.709Z,1000.91
2018-08-10T01:55:44.141Z,1000.91
2018-08-10T01:56:50.565Z,1000.97
2018-08-10T01:57:56.998Z,1000.97
2018-08-10T01:59:03.415Z,1001.01
2018-08-10T02:00:09.860Z,1001.01
2018-08-10T02:01:16.282Z,1001.06
2018-08-10T02:02:22.707Z,1001.04
2018-08-10T02:03:29.143Z,1001.05
2018-08-10T02:04:35.557Z,1001.05
2018-08-10T02:05:41.995Z,1001.14
2018-08-10T02:06:48.415Z,1001.09
2018-08-10T02:07:54.834Z,1001.16
2018-08-10T02:09:01.267Z,1001.18
2018-08-10T02:10:07.698Z,1001.14
2018-08-10T02:11:14.112Z,1001.19
2018-08-10T02:12:20.539Z,1001.17
2018-08-10T02:13:27.255Z,1001.13
2018-08-10T02:14:33.375Z,1001.18
2018-08-10T02:15:39.797Z,1001.15
2018-08-10T02:16:47.210Z,1001.13
2018-08-10T02:17:52.633Z,1001.16
2018-08-10T02:18:59.047Z,1001.19
2018-08-10T02:20:05.476Z,1001.18
2018-08-10T02:21:11.892Z,1001.11
2018-08-10T02:22:18.312Z,1001.14
2018-08-10T02:23:24.732Z,1001.12
2018-08-10T02:24:31.647Z,1001.14
2018-08-10T02:25:37.573Z,1001.11
2018-08-10T02:26:43.980Z,1001.21
2018-08-10T02:27:50.412Z,1001.23
2018-08-10T02:28:57.342Z,1001.08
2018-08-10T02:30:03.252Z,1001.15
2018-08-10T02:31:09.665Z,1001.12
2018-08-10T02:32:16.092Z,1001.15
2018-08-10T02:33:22.514Z,1001.19
2018-08-10T02:34:28.924Z,1001.19
2018-08-10T02:35:35.345Z,1001.20
2018-08-10T02:36:41.757Z,1001.22
2018-08-10T02:37:48.272Z,1001.23
2018-08-10T02:38:54.585Z,1001.20
2018-08-10T02:40:01.007Z,1001.25
2018-08-10T02:41:07.404Z,1001.22
2018-08-10T02:42:14.328Z,1001.20
2018-08-10T02:43:20.245Z,1001.26
2018-08-10T02:44:26.654Z,1001.27
2018-08-10T02:45:33.077Z,1001.32
2018-08-10T02:46:39.471Z,1001.26
2018-08-10T02:47:45.894Z,1001.31
2018-08-10T02:48:52.298Z,1001.36
2018-08-10T02:49:58.708Z,1001.41
2018-08-10T02:51:05.120Z,1001.42
2018-08-10T02:52:11.526Z,1001.44
2018-08-10T02:53:18.435Z,1001.41
2018-08-10T02:54:24.343Z,1001.42
2018-08-10T02:55:30.743Z,1001.47
2018-08-10T02:56:37.151Z,1001.41
2018-08-10T02:57:43.556Z,1001.51
2018-08-10T02:58:49.966Z,1001.50
2018-08-10T02:59:56.386Z,1001.51
2018-08-10T03:01:02.789Z,1001.55
2018-08-10T03:02:09.184Z,1001.55
2018-08-10T03:03:16.086Z,1001.59
2018-08-10T03:04:21.996Z,1001.59
2018-08-10T03:05:28.405Z,1001.61
2018-08-10T03:06:34.803Z,1001.67
2018-08-10T03:07:41.194Z,1001.66
2018-08-10T03:08:47.594Z,1001.69
2018-08-10T03:09:53.996Z,1001.76
2018-08-10T03:11:00.400Z,1001.75
2018-08-10T03:12:06.792Z,1001.81
2018-08-10T03:13:13.187Z,1001.83
2018-08-10T03:14:19.574Z,1001.80
2018-08-10T03:15:25.979Z,1001.87
2018-08-10T03:16:32.360Z,1001.87
2018-08-10T03:17:38.753Z,1001.82
2018-08-10T03:18:45.142Z,1001.82
2018-08-10T03:19:51.537Z,1001.86
2018-08-10T03:20:57.931Z,1001.88
2018-08-10T03:22:04.326Z,1001.89
2018-08-10T03:23:10.719Z,1001.88
2018-08-10T03:24:17.110Z,1001.90
2018-08-10T03:25:23.501Z,1001.91
2018-08-10T03:26:29.889Z,1001.97
2018-08-10T03:27:36.286Z,1001.97
2018-08-10T03:28:42.664Z,1001.99
2018-08-10T03:29:49.064Z,1002.02
2018-08-10T03:30:55.461Z,1002.02
2018-08-10T03:32:01.837Z,1002.01
2018-08-10T03:33:08.235Z,1002.04
2018-08-10T03:34:14.612Z,1002.07
2018-08-10T03:35:21.486Z,1002.12
2018-08-10T03:36:27.408Z,1002.05
2018-08-10T03:37:33.776Z,1002.16
2018-08-10T03:38:40.656Z,1002.13
2018-08-10T03:39:46.548Z,1002.18
2018-08-10T03:40:52.944Z,1002.18
2018-08-10T03:41:59.328Z,1002.19
2018-08-10T03:43:05.703Z,1002.16
2018-08-10T03:44:12.096Z,1002.22
2018-08-10T03:45:18.482Z,1002.24
2018-08-10T03:46:24.862Z,1002.26
2018-08-10T03:47:31.243Z,1002.27
2018-08-10T03:48:37.620Z,1002.30
2018-08-10T03:49:44.053Z,1002.28
2018-08-10T03:50:50.382Z,1002.35
2018-08-10T03:51:56.754Z,1002.34
2018-08-10T03:53:03.155Z,1002.42
2018-08-10T03:54:09.515Z,1002.42
2018-08-10T03:55:15.888Z,1002.48
2018-08-10T03:56:22.273Z,1002.51
2018-08-10T03:57:28.642Z,1002.49
2018-08-10T03:58:35.036Z,1002.54
2018-08-10T03:59:41.407Z,1002.56
2018-08-10T04:00:47.784Z,1002.61
2018-08-10T04:01:54.143Z,1002.62
2018-08-10T04:03:00.519Z,1002.70
2018-08-10T04:04:06.912Z,1002.72
2018-08-10T04:05:13.265Z,1002.74
2018-08-10T04:06:19.651Z,1002.76
2018-08-10T04:07:26.022Z,1002.78
2018-08-10T04:08:33.379Z,1002.82
2018-08-10T04:09:38.754Z,1002.82
2018-08-10T04:10:45.134Z,1002.83
2018-08-10T04:11:51.504Z,1002.87
2018-08-10T04:12:57.866Z,1002.90
2018-08-10T04:14:04.237Z,1002.94
2018-08-10T04:15:10.617Z,1002.94
2018-08-10T04:16:17.482Z,1002.96
2018-08-10T04:17:23.337Z,1002.99
2018-08-10T04:18:29.710Z,1002.97
2018-08-10T04:19:36.070Z,1003.04
2018-08-10T04:20:42.932Z,1003.03
2018-08-10T04:21:48.821Z,1003.03
2018-08-10T04:22:55.172Z,1003.09
2018-08-10T04:24:01.548Z,1003.12
2018-08-10T04:25:07.911Z,1003.14
2018-08-10T04:26:14.280Z,1003.13
2018-08-10T04:27:20.660Z,1003.16
2018-08-10T04:28:27.005Z,1003.21
2018-08-10T04:29:33.373Z,1003.15
2018-08-10T04:30:39.729Z,1003.19
2018-08-10T04:31:46.105Z,1003.23
2018-08-10T04:32:52.451Z,1003.26
2018-08-10T04:33:58.807Z,1003.29
2018-08-10T04:35:05.184Z,1003.34
2018-08-10T04:36:11.546Z,1003.31
2018-08-10T04:37:17.920Z,1003.33
2018-08-10T04:38:24.299Z,1003.37
2018-08-10T04:39:30.634Z,1003.36
2018-08-10T04:40:36.991Z,1003.42
2018-08-10T04:41:43.861Z,1003.41
2018-08-10T04:42:49.719Z,1003.43
2018-08-10T04:43:56.576Z,1003.44
2018-08-10T04:45:02.449Z,1003.41
2018-08-10T04:46:08.835Z,1003.42
2018-08-10T04:47:15.170Z,1003.48
2018-08-10T04:48:21.528Z,1003.51
2018-08-10T04:49:27.879Z,1003.53
2018-08-10T04:50:34.239Z,1003.54
2018-08-10T04:51:40.626Z,1003.56
2018-08-10T04:52:46.982Z,1003.56
2018-08-10T04:53:53.345Z,1003.62
2018-08-10T04:54:59.770Z,1003.61
2018-08-10T04:56:06.079Z,1003.58
2018-08-10T04:57:12.415Z,1003.63
2018-08-10T04:58:18.780Z,1003.66
2018-08-10T04:59:25.150Z,1003.70
2018-08-10T05:00:31.521Z,1003.68
2018-08-10T05:01:37.879Z,1003.69
2018-08-10T05:02:44.233Z,1003.72
2018-08-10T05:03:50.620Z,1003.71
2018-08-10T05:04:56.945Z,1003.74
2018-08-10T05:06:03.316Z,1003.72
2018-08-10T05:07:09.689Z,1003.71
2018-08-10T05:08:16.042Z,1003.67
2018-08-10T05:09:22.401Z,1003.72
2018-08-10T05:10:28.776Z,1003.71
2018-08-10T05:11:35.162Z,1003.67
2018-08-10T05:12:41.500Z,1003.75
2018-08-10T05:13:47.865Z,1003.75
2018-08-10T05:14:54.222Z,1003.76
2018-08-10T05:16:00.602Z,1003.77
2018-08-10T05:17:06.981Z,1003.82
2018-08-10T05:18:13.335Z,1003.81
2018-08-10T05:19:19.692Z,1003.86
2018-08-10T05:20:26.067Z,1003.90
2018-08-10T05:21:32.438Z,1003.91
2018-08-10T05:22:38.802Z,1003.93
2018-08-10T05:23:45.173Z,1003.95
2018-08-10T05:24:51.552Z,1003.97
2018-08-10T05:25:57.935Z,1004.01
2018-08-10T05:27:04.316Z,1003.98
2018-08-10T05:28:10.678Z,1003.97
2018-08-10T05:29:17.062Z,1004.01
2018-08-10T05:30:23.441Z,1004.00
2018-08-10T05:31:29.834Z,1003.98
2018-08-10T05:32:36.207Z,1004.01
2018-08-10T05:33:42.582Z,1004.05
2018-08-10T05:34:49.037Z,1004.06
2018-08-10T05:35:55.341Z,1004.07
2018-08-10T05:37:01.739Z,1004.07
2018-08-10T05:38:08.120Z,1004.08
2018-08-10T05:39:14.523Z,1004.09
2018-08-10T05:40:20.897Z,1004.08
2018-08-10T05:41:27.301Z,1004.15
2018-08-10T05:42:33.712Z,1004.16
2018-08-10T05:43:40.073Z,1004.16
2018-08-10T05:44:46.457Z,1004.15
2018-08-10T05:45:52.869Z,1004.21
2018-08-10T05:46:59.340Z,1004.17
2018-08-10T05:48:05.723Z,1004.20
2018-08-10T05:49:12.021Z,1004.25
2018-08-10T05:50:18.420Z,1004.20
2018-08-10T05:51:24.820Z,1004.21
2018-08-10T05:52:31.328Z,1004.21
2018-08-10T05:53:37.609Z,1004.22
2018-08-10T05:54:44.009Z,1004.23
2018-08-10T05:55:50.909Z,1004.24
2018-08-10T05:56:56.818Z,1004.30
2018-08-10T05:58:03.210Z,1004.27
2018-08-10T05:59:09.619Z,1004.25
2018-08-10T06:00:16.001Z,1004.24
2018-08-10T06:01:22.411Z,1004.30
2018-08-10T06:02:28.816Z,1004.31
2018-08-10T06:03:35.250Z,1004.34
2018-08-10T06:04:41.618Z,1004.35
2018-08-10T06:05:48.014Z,1004.38
2018-08-10T06:06:54.436Z,1004.35
2018-08-10T06:08:00.836Z,1004.38
2018-08-10T06:09:07.247Z,1004.38
2018-08-10T06:10:13.645Z,1004.40
2018-08-10T06:11:20.056Z,1004.41
2018-08-10T06:12:26.474Z,1004.46
2018-08-10T06:13:32.889Z,1004.39
2018-08-10T06:14:39.792Z,1004.43
2018-08-10T06:15:45.711Z,1004.43
2018-08-10T06:16:52.131Z,1004.41
2018-08-10T06:17:58.543Z,1004.39
2018-08-10T06:19:04.973Z,1004.48
2018-08-10T06:20:11.377Z,1004.47
2018-08-10T06:21:17.789Z,1004.50
2018-08-10T06:22:24.210Z,1004.56
2018-08-10T06:23:30.623Z,1004.51
2018-08-10T06:24:37.045Z,1004.52
2018-08-10T06:25:43.472Z,1004.54
2018-08-10T06:26:50.387Z,1004.52
2018-08-10T06:27:56.469Z,1004.53
2018-08-10T06:29:02.753Z,1004.51
2018-08-10T06:30:09.177Z,1004.55
2018-08-10T06:31:15.603Z,1004.56
2018-08-10T06:32:22.050Z,1004.63
2018-08-10T06:33:28.468Z,1004.63
2018-08-10T06:34:34.901Z,1004.65
2018-08-10T06:35:41.336Z,1004.67
2018-08-10T06:36:47.801Z,1004.71
2018-08-10T06:37:54.227Z,1004.74
2018-08-10T06:39:00.692Z,1004.76
2018-08-10T06:40:07.150Z,1004.72
2018-08-10T06:41:13.627Z,1004.74
2018-08-10T06:42:20.115Z,1004.66
2018-08-10T06:43:26.593Z,1004.65
2018-08-10T06:44:33.084Z,1004.64
2018-08-10T06:45:39.589Z,1004.62
2018-08-10T06:46:46.085Z,1004.64
2018-08-10T06:47:52.602Z,1004.64
2018-08-10T06:48:59.105Z,1004.65
2018-08-10T06:50:05.625Z,1004.65
2018-08-10T06:51:12.172Z,1004.67
2018-08-10T06:52:18.649Z,1004.70
2018-08-10T06:53:25.144Z,1004.71
2018-08-10T06:54:31.647Z,1004.66
2018-08-10T06:55:38.198Z,1004.64
2018-08-10T06:56:44.680Z,1004.61
2018-08-10T06:57:51.213Z,1004.65
2018-08-10T06:58:57.705Z,1004.67
2018-08-10T07:00:04.232Z,1004.67
2018-08-10T07:01:10.818Z,1004.66
2018-08-10T07:02:17.286Z,1004.62
2018-08-10T07:03:23.804Z,1004.65
2018-08-10T07:04:30.323Z,1004.63
2018-08-10T07:05:36.861Z,1004.59
2018-08-10T07:06:43.391Z,1004.62
2018-08-10T07:07:49.981Z,1004.62
2018-08-10T07:08:56.489Z,1004.65
2018-08-10T07:10:03.041Z,1004.61
2018-08-10T07:11:10.585Z,1004.61
2018-08-10T07:12:16.145Z,1004.63
2018-08-10T07:13:22.854Z,1004.70
2018-08-10T07:14:29.738Z,1004.58
2018-08-10T07:15:35.769Z,1004.59
2018-08-10T07:16:42.321Z,1004.63
2018-08-10T07:17:48.870Z,1004.58
2018-08-10T07:18:55.904Z,1004.58
2018-08-10T07:20:01.955Z,1004.54
2018-08-10T07:21:08.513Z,1004.59
2018-08-10T07:22:15.073Z,1004.58
2018-08-10T07:23:21.630Z,1004.57
2018-08-10T07:24:29.177Z,1004.55
2018-08-10T07:25:34.758Z,1004.54
2018-08-10T07:26:41.323Z,1004.54
2018-08-10T07:27:47.895Z,1004.54
2018-08-10T07:28:54.465Z,1004.53
2018-08-10T07:30:01.041Z,1004.58
2018-08-10T07:31:07.605Z,1004.58
2018-08-10T07:32:14.286Z,1004.58
2018-08-10T07:33:20.780Z,1004.55
2018-08-10T07:34:27.355Z,1004.54
2018-08-10T07:35:33.937Z,1004.56
2018-08-10T07:36:40.514Z,1004.58
2018-08-10T07:37:47.101Z,1004.56
2018-08-10T07:38:53.668Z,1004.58
2018-08-10T07:40:00.244Z,1004.58
2018-08-10T07:41:06.808Z,1004.61
2018-08-10T07:42:13.404Z,1004.58
2018-08-10T07:43:19.967Z,1004.59
2018-08-10T07:44:26.510Z,1004.56
2018-08-10T07:45:33.074Z,1004.52
2018-08-10T07:46:39.632Z,1004.56
2018-08-10T07:47:46.282Z,1004.56
2018-08-10T07:48:52.746Z,1004.57
2018-08-10T07:49:59.310Z,1004.59
2018-08-10T07:51:05.872Z,1004.60
2018-08-10T07:52:12.516Z,1004.55
2018-08-10T07:53:19.038Z,1004.52
2018-08-10T07:54:25.604Z,1004.52
2018-08-10T07:55:32.190Z,1004.48
2018-08-10T07:56:38.779Z,1004.48
2018-08-10T07:57:45.395Z,1004.53
2018-08-10T07:58:52.015Z,1004.54
2018-08-10T07:59:58.585Z,1004.55
2018-08-10T08:01:05.204Z,1004.51
2018-08-10T08:02:11.808Z,1004.50
2018-08-10T08:03:18.510Z,1004.48
2018-08-10T08:04:25.068Z,1004.54
2018-08-10T08:05:31.699Z,1004.51
2018-08-10T08:06:38.337Z,1004.45
2018-08-10T08:07:44.985Z,1004.47
2018-08-10T08:08:51.619Z,1004.49
2018-08-10T08:09:58.270Z,1004.46
2018-08-10T08:11:05.417Z,1004.49
2018-08-10T08:12:11.568Z,1004.52
2018-08-10T08:13:18.259Z,1004.53
2018-08-10T08:14:24.895Z,1004.49
2018-08-10T08:15:31.578Z,1004.49
2018-08-10T08:16:38.222Z,1004.44
2018-08-10T08:17:44.875Z,1004.45
2018-08-10T08:18:51.530Z,1004.49
2018-08-10T08:19:58.315Z,1004.44
2018-08-10T08:21:04.837Z,1004.47
2018-08-10T08:22:11.492Z,1004.53
2018-08-10T08:23:18.161Z,1004.53
2018-08-10T08:24:25.003Z,1004.51
2018-08-10T08:25:31.481Z,1004.52
2018-08-10T08:26:38.147Z,1004.59
2018-08-10T08:27:45.821Z,1004.52
2018-08-10T08:28:51.477Z,1004.49
2018-08-10T08:29:58.266Z,1004.52
2018-08-10T08:31:04.826Z,1004.56
2018-08-10T08:32:11.488Z,1004.48
2018-08-10T08:33:18.183Z,1004.55
2018-08-10T08:34:24.855Z,1004.55
2018-08-10T08:35:31.534Z,1004.52
2018-08-10T08:36:38.222Z,1004.53
2018-08-10T08:37:44.913Z,1004.55
2018-08-10T08:38:51.589Z,1004.54
2018-08-10T08:39:58.266Z,1004.63
2018-08-10T08:41:04.980Z,1004.57
2018-08-10T08:42:11.824Z,1004.55
2018-08-10T08:43:18.321Z,1004.55
2018-08-10T08:44:24.986Z,1004.55
2018-08-10T08:45:31.770Z,1004.56
2018-08-10T08:46:39.108Z,1004.57
2018-08-10T08:47:45.049Z,1004.54
2018-08-10T08:48:51.725Z,1004.54
2018-08-10T08:49:58.416Z,1004.49
2018-08-10T08:51:05.091Z,1004.48
2018-08-10T08:52:11.799Z,1004.49
2018-08-10T08:53:18.499Z,1004.43
2018-08-10T08:54:25.183Z,1004.46
2018-08-10T08:55:31.877Z,1004.45
2018-08-10T08:56:39.072Z,1004.49
2018-08-10T08:57:45.272Z,1004.48
2018-08-10T08:58:51.959Z,1004.49
2018-08-10T08:59:58.654Z,1004.45
2018-08-10T09:01:05.353Z,1004.51
2018-08-10T09:02:12.063Z,1004.57
2018-08-10T09:03:18.774Z,1004.48
2018-08-10T09:04:25.470Z,1004.50
2018-08-10T09:05:32.184Z,1004.54
2018-08-10T09:06:38.884Z,1004.52
2018-08-10T09:07:45.660Z,1004.50
2018-08-10T09:08:52.271Z,1004.48
2018-08-10T09:09:59.011Z,1004.53
2018-08-10T09:11:05.722Z,1004.47
2018-08-10T09:12:12.361Z,1004.45
2018-08-10T09:13:19.064Z,1004.46
2018-08-10T09:14:26.249Z,1004.42
2018-08-10T09:15:32.429Z,1004.41
2018-08-10T09:16:39.117Z,1004.49
2018-08-10T09:17:45.809Z,1004.52
2018-08-10T09:18:52.522Z,1004.50
2018-08-10T09:19:59.713Z,1004.50
2018-08-10T09:21:05.931Z,1004.42
2018-08-10T09:22:12.642Z,1004.47
2018-08-10T09:23:19.410Z,1004.46
2018-08-10T09:24:26.106Z,1004.42
2018-08-10T09:25:32.828Z,1004.35
2018-08-10T09:26:39.563Z,1004.41
2018-08-10T09:27:46.315Z,1004.41
2018-08-10T09:28:53.075Z,1004.45
2018-08-10T09:29:59.829Z,1004.41
2018-08-10T09:31:06.581Z,1004.39
2018-08-10T09:32:13.342Z,1004.46
2018-08-10T09:33:20.612Z,1004.42
2018-08-10T09:34:26.861Z,1004.40
2018-08-10T09:35:33.588Z,1004.40
2018-08-10T09:36:40.336Z,1004.39
2018-08-10T09:37:48.064Z,1004.46
2018-08-10T09:38:53.799Z,1004.37
2018-08-10T09:40:00.533Z,1004.41
2018-08-10T09:41:07.240Z,1004.43
2018-08-10T09:42:13.998Z,1004.47
2018-08-10T09:43:20.683Z,1004.42
2018-08-10T09:44:27.397Z,1004.48
2018-08-10T09:45:34.124Z,1004.39
2018-08-10T09:46:40.840Z,1004.38
2018-08-10T09:47:47.591Z,1004.33
2018-08-10T09:48:54.302Z,1004.40
2018-08-10T09:50:01.026Z,1004.36
2018-08-10T09:51:07.752Z,1004.34
2018-08-10T09:52:14.482Z,1004.33
2018-08-10T09:53:21.196Z,1004.38
2018-08-10T09:54:27.913Z,1004.38
2018-08-10T09:55:34.628Z,1004.38
2018-08-10T09:56:41.868Z,1004.34
2018-08-10T09:57:48.144Z,1004.31
2018-08-10T09:58:55.899Z,1004.32
2018-08-10T10:00:01.681Z,1004.33
2018-08-10T10:01:08.464Z,1004.32
2018-08-10T10:02:15.241Z,1004.25
2018-08-10T10:03:22.049Z,1004.28
2018-08-10T10:04:28.838Z,1004.33
2018-08-10T10:05:35.642Z,1004.27
2018-08-10T10:06:42.497Z,1004.24
2018-08-10T10:07:49.247Z,1004.23
2018-08-10T10:08:56.094Z,1004.17
2018-08-10T10:10:02.844Z,1004.18
2018-08-10T10:11:09.641Z,1004.14
2018-08-10T10:12:16.465Z,1004.07
2018-08-10T10:13:23.284Z,1004.20
2018-08-10T10:14:30.078Z,1004.21
2018-08-10T10:15:36.889Z,1004.16
2018-08-10T10:16:43.687Z,1004.29
2018-08-10T10:17:50.509Z,1004.18
2018-08-10T10:18:57.324Z,1004.16
2018-08-10T10:20:04.141Z,1004.11
2018-08-10T10:21:11.072Z,1004.09
2018-08-10T10:22:17.808Z,1004.19
2018-08-10T10:23:24.643Z,1004.14
2018-08-10T10:24:31.481Z,1004.23
2018-08-10T10:25:38.294Z,1004.18
2018-08-10T10:26:45.116Z,1004.09
2018-08-10T10:27:51.946Z,1004.13
2018-08-10T10:28:58.776Z,1004.10
2018-08-10T10:30:05.596Z,1004.22
2018-08-10T10:31:12.432Z,1004.14
2018-08-10T10:32:19.270Z,1004.21
2018-08-10T10:33:27.103Z,1004.21
2018-08-10T10:34:32.976Z,1004.24
2018-08-10T10:35:39.779Z,1004.27
2018-08-10T10:36:46.605Z,1004.19
2018-08-10T10:37:53.431Z,1004.04
2018-08-10T10:39:00.269Z,1004.14
2018-08-10T10:40:07.108Z,1004.04
2018-08-10T10:41:13.927Z,1004.03
2018-08-10T10:42:20.782Z,1004.05
2018-08-10T10:43:27.608Z,1004.05
2018-08-10T10:44:34.451Z,1003.99
2018-08-10T10:45:41.256Z,1004.00
2018-08-10T10:46:48.087Z,1004.02
2018-08-10T10:47:54.876Z,1004.07
2018-08-10T10:49:01.701Z,1004.01
2018-08-10T10:50:08.504Z,1004.00
2018-08-10T10:51:15.325Z,1003.99
2018-08-10T10:52:22.676Z,1004.03
2018-08-10T10:53:28.954Z,1004.03
2018-08-10T10:54:35.764Z,1004.03
2018-08-10T10:55:42.575Z,1004.00
2018-08-10T10:56:49.496Z,1003.98
2018-08-10T10:57:56.240Z,1003.98
2018-08-10T10:59:03.092Z,1004.00
2018-08-10T11:00:09.945Z,1003.84
2018-08-10T11:01:16.808Z,1003.94
2018-08-10T11:02:23.682Z,1004.00
2018-08-10T11:03:30.548Z,1003.93
2018-08-10T11:04:37.426Z,1004.00
2018-08-10T11:05:44.302Z,1003.97
2018-08-10T11:06:51.195Z,1003.92
2018-08-10T11:07:58.069Z,1003.94
2018-08-10T11:09:04.962Z,1003.89
2018-08-10T11:10:11.839Z,1003.89
2018-08-10T11:11:18.712Z,1003.99
2018-08-10T11:12:25.581Z,1003.87
2018-08-10T11:13:32.424Z,1004.03
2018-08-10T11:14:39.272Z,1003.98
2018-08-10T11:15:46.096Z,1003.98
2018-08-10T11:16:52.924Z,1003.99
2018-08-10T11:17:59.793Z,1004.03
2018-08-10T11:19:06.574Z,1004.01
2018-08-10T11:20:13.383Z,1004.00
2018-08-10T11:21:20.181Z,1004.08
2018-08-10T11:22:26.974Z,1004.05
2018-08-10T11:23:33.739Z,1004.10
2018-08-10T11:24:40.999Z,1004.06
2018-08-10T11:25:47.375Z,1004.08
2018-08-10T11:26:54.013Z,1004.10
2018-08-10T11:28:00.747Z,1004.17
2018-08-10T11:29:07.484Z,1004.10
2018-08-10T11:30:14.230Z,1004.09
2018-08-10T11:31:21.445Z,1004.11
2018-08-10T11:32:27.691Z,1004.09
2018-08-10T11:33:34.431Z,1004.12
2018-08-10T11:34:41.177Z,1004.15
2018-08-10T11:35:48.212Z,1004.14
2018-08-10T11:36:54.657Z,1004.19
2018-08-10T11:38:01.392Z,1004.16
2018-08-10T11:39:08.134Z,1004.17
2018-08-10T11:40:14.878Z,1004.15
2018-08-10T11:41:21.660Z,1004.16
2018-08-10T11:42:28.364Z,1004.17
2018-08-10T11:43:35.123Z,1004.18
2018-08-10T11:44:41.879Z,1004.16
2018-08-10T11:45:49.116Z,1004.16
2018-08-10T11:46:55.384Z,1004.10
2018-08-10T11:48:02.632Z,1004.12
2018-08-10T11:49:09.382Z,1004.11
2018-08-10T11:50:15.626Z,1004.09
2018-08-10T11:51:22.352Z,1004.12
2018-08-10T11:52:29.121Z,1004.11
2018-08-10T11:53:35.803Z,1004.09
2018-08-10T11:54:42.512Z,1004.07
2018-08-10T11:55:49.210Z,1004.12
2018-08-10T11:56:55.927Z,1004.10
2018-08-10T11:58:02.628Z,1004.13
2018-08-10T11:59:09.334Z,1004.21
2018-08-10T12:00:16.020Z,1004.15
2018-08-10T12:01:22.714Z,1004.11
2018-08-10T12:02:29.394Z,1004.15
2018-08-10T12:03:36.091Z,1004.17
2018-08-10T12:04:42.803Z,1004.14
2018-08-10T12:05:49.511Z,1004.17
2018-08-10T12:06:56.140Z,1004.17
2018-08-10T12:08:02.847Z,1004.16
2018-08-10T12:09:09.582Z,1004.10
2018-08-10T12:10:18.794Z,1004.10
2018-08-10T12:11:23.218Z,1004.06
2018-08-10T12:12:30.166Z,1004.08
2018-08-10T12:13:37.045Z,1004.05
2018-08-10T12:14:43.931Z,1004.08
2018-08-10T12:15:50.801Z,1004.02
2018-08-10T12:16:57.665Z,1003.98
2018-08-10T12:18:04.513Z,1003.99
2018-08-10T12:19:12.875Z,1004.01
2018-08-10T12:20:18.301Z,1003.99
2018-08-10T12:21:24.999Z,1003.99
2018-08-10T12:22:31.817Z,1003.99
2018-08-10T12:23:38.629Z,1003.96
2018-08-10T12:24:45.558Z,1003.85
2018-08-10T12:25:52.261Z,1003.88
2018-08-10T12:26:59.054Z,1003.86
2018-08-10T12:28:05.863Z,1003.86
2018-08-10T12:29:12.669Z,1003.89
2018-08-10T12:30:19.562Z,1003.90
2018-08-10T12:31:26.263Z,1003.91
2018-08-10T12:32:33.053Z,1003.92
2018-08-10T12:33:39.844Z,1003.95
2018-08-10T12:34:46.638Z,1003.93
2018-08-10T12:35:53.432Z,1003.92
2018-08-10T12:37:00.194Z,1003.93
2018-08-10T12:38:06.977Z,1003.89
2018-08-10T12:39:13.742Z,1003.83
2018-08-10T12:40:20.494Z,1003.86
2018-08-10T12:41:27.245Z,1003.85
2018-08-10T12:42:34.476Z,1003.86
2018-08-10T12:43:40.730Z,1003.87
2018-08-10T12:44:47.482Z,1003.89
2018-08-10T12:45:54.206Z,1003.89
2018-08-10T12:47:00.929Z,1003.90
2018-08-10T12:48:07.683Z,1003.90
2018-08-10T12:49:14.370Z,1003.88
2018-08-10T12:50:21.182Z,1003.95
2018-08-10T12:51:28.302Z,1003.89
2018-08-10T12:52:34.510Z,1003.94
2018-08-10T12:53:41.710Z,1004.01
2018-08-10T12:54:47.936Z,1004.08
2018-08-10T12:55:54.628Z,1004.17
2018-08-10T12:57:01.338Z,1004.13
2018-08-10T12:58:08.038Z,1004.11
2018-08-10T12:59:14.727Z,1004.13
2018-08-10T13:00:21.447Z,1004.18
2018-08-10T13:01:28.147Z,1004.16
2018-08-10T13:02:34.939Z,1004.12
2018-08-10T13:03:41.678Z,1004.20
2018-08-10T13:04:48.569Z,1004.07
2018-08-10T13:05:55.515Z,1004.07
2018-08-10T13:07:02.531Z,1004.10
2018-08-10T13:08:09.572Z,1004.03
2018-08-10T13:09:16.646Z,1004.04
2018-08-10T13:10:23.783Z,1004.00
2018-08-10T13:11:30.926Z,1003.90
2018-08-10T13:12:38.122Z,1003.89
2018-08-10T13:13:45.353Z,1003.86
2018-08-10T13:14:53.120Z,1003.79
2018-08-10T13:15:59.908Z,1003.80
2018-08-10T13:17:07.280Z,1003.77
2018-08-10T13:18:14.520Z,1003.74
2018-08-10T13:19:21.860Z,1003.68
2018-08-10T13:20:29.243Z,1003.59
2018-08-10T13:21:36.621Z,1003.59
2018-08-10T13:22:44.026Z,1003.66
2018-08-10T13:23:51.526Z,1003.55
2018-08-10T13:24:58.932Z,1003.58
2018-08-10T13:26:06.397Z,1003.58
2018-08-10T13:27:13.897Z,1003.54